Time;durP1;ratioP1;P1;durP2;ratioP2;P2;SDS_P1;SDS_P2;PMS_P1;PMS_P2;Temp;Humidity;BMP_temperature;BMP_pressure;BME280_temperature;BME280_humidity;BME280_pressure;Samples;Min_cycle;Max_cycle;Signal;HPM_P1;HPM_P2
2023/03/16 00:00:50;;;;;;;;;4.50;3.50;;;;;;;;5011433;28;11390;-82
2023/03/16 00:03:20;;;;;;;;;3.75;3.75;;;;;;;;5008668;28;11447;-82
2023/03/16 00:05:47;;;;;;;;;3.00;3.00;;;;;;;;4997700;28;11432;-82
2023/03/16 00:08:16;;;;;;;;;6.75;4.00;;;;;;;;5013673;28;11583;-81
2023/03/16 00:10:45;;;;;;;;;3.00;3.00;;;;;;;;5012733;28;11490;-82
2023/03/16 00:13:14;;;;;;;;;5.00;5.00;;;;;;;;5000822;28;11430;-81
2023/03/16 00:15:42;;;;;;;;;2.00;2.00;;;;;;;;5000352;28;12352;-82
2023/03/16 00:18:09;;;;;;;;;4.00;2.50;;;;;;;;5023761;28;11465;-81
2023/03/16 00:20:38;;;;;;;;;2.25;2.25;;;;;;;;5006405;28;11416;-82
2023/03/16 00:23:06;;;;;;;;;6.00;3.75;;;;;;;;5021779;28;11564;-81
2023/03/16 00:25:33;;;;;;;;;4.00;4.00;;;;;;;;5015807;28;11431;-81
2023/03/16 00:28:02;;;;;;;;;3.00;3.00;;;;;;;;4996389;28;11397;-82
2023/03/16 00:30:34;;;;;;;;;2.00;2.00;;;;;;;;5013058;28;11403;-82
2023/03/16 00:33:04;;;;;;;;;2.75;2.75;;;;;;;;5017957;28;11248;-82
2023/03/16 00:35:33;;;;;;;;;5.00;3.00;;;;;;;;5001227;28;11469;-81
2023/03/16 00:38:02;;;;;;;;;2.75;2.00;;;;;;;;5003243;28;11248;-81
2023/03/16 00:40:32;;;;;;;;;2.50;2.50;;;;;;;;5004397;28;11256;-79
2023/03/16 00:43:00;;;;;;;;;3.50;3.00;;;;;;;;5006769;28;11419;-79
2023/03/16 00:45:28;;;;;;;;;2.75;2.75;;;;;;;;5002054;28;11407;-80
2023/03/16 00:47:56;;;;;;;;;2.00;2.00;;;;;;;;5003419;28;11411;-81
2023/03/16 00:50:23;;;;;;;;;2.00;2.00;;;;;;;;5019322;28;11154;-81
2023/03/16 00:52:52;;;;;;;;;2.00;2.00;;;;;;;;5004007;28;11147;-82
2023/03/16 00:55:22;;;;;;;;;3.00;3.00;;;;;;;;5002603;28;11387;-80
2023/03/16 00:57:49;;;;;;;;;3.50;2.50;;;;;;;;5019853;28;11434;-82
2023/03/16 01:00:19;;;;;;;;;1.25;1.25;;;;;;;;5017284;28;11254;-81
2023/03/16 01:02:47;;;;;;;;;3.50;2.00;;;;;;;;4986499;28;11107;-80
2023/03/16 01:05:15;;;;;;;;;3.00;1.50;;;;;;;;5000381;28;11260;-81
2023/03/16 01:07:43;;;;;;;;;3.00;2.00;;;;;;;;5000551;28;11123;-81
2023/03/16 01:10:12;;;;;;;;;3.25;2.00;;;;;;;;5004225;28;11520;-82
2023/03/16 01:12:44;;;;;;;;;1.25;1.25;;;;;;;;5015736;28;11168;-81
2023/03/16 01:15:12;;;;;;;;;2.00;2.00;;;;;;;;5018128;28;11099;-81
2023/03/16 01:17:40;;;;;;;;;2.00;2.00;;;;;;;;5017502;28;11220;-81
2023/03/16 01:20:11;;;;;;;;;3.25;3.00;;;;;;;;5018113;28;11219;-83
2023/03/16 01:22:38;;;;;;;;;1.00;1.00;;;;;;;;5002869;28;11473;-80
2023/03/16 01:25:07;;;;;;;;;1.50;1.50;;;;;;;;5016754;28;11956;-80
2023/03/16 01:27:35;;;;;;;;;1.50;1.50;;;;;;;;5002286;28;11399;-81
2023/03/16 01:30:06;;;;;;;;;2.00;2.00;;;;;;;;4986228;28;11458;-81
2023/03/16 01:32:34;;;;;;;;;1.75;1.75;;;;;;;;5018061;28;11513;-82
2023/03/16 01:35:03;;;;;;;;;4.00;2.75;;;;;;;;5013101;28;12216;-81
2023/03/16 01:37:31;;;;;;;;;3.00;3.00;;;;;;;;5019086;28;12371;-80
2023/03/16 01:40:01;;;;;;;;;2.00;2.00;;;;;;;;5017859;28;11484;-81
2023/03/16 01:42:28;;;;;;;;;1.75;1.75;;;;;;;;5010757;28;11469;-81
2023/03/16 01:45:00;;;;;;;;;2.00;2.00;;;;;;;;5015551;28;11418;-81
2023/03/16 01:47:36;;;;;;;;;4.00;2.00;;;;;;;;5015052;28;11238;-81
2023/03/16 01:50:06;;;;;;;;;2.25;1.00;;;;;;;;5017190;28;12272;-80
2023/03/16 01:52:37;;;;;;;;;3.25;3.25;;;;;;;;5015700;28;11375;-81
2023/03/16 01:55:08;;;;;;;;;2.75;2.75;;;;;;;;5003625;28;11526;-81
2023/03/16 01:57:39;;;;;;;;;3.00;3.00;;;;;;;;5018916;28;11408;-81
2023/03/16 02:00:15;;;;;;;;;2.00;2.00;;;;;;;;5015214;28;11434;-80
2023/03/16 02:02:47;;;;;;;;;3.25;2.00;;;;;;;;5003361;28;11370;-79
2023/03/16 02:05:18;;;;;;;;;4.00;4.00;;;;;;;;5018392;28;11501;-79
2023/03/16 02:07:48;;;;;;;;;1.00;1.00;;;;;;;;5017512;28;11430;-81
2023/03/16 02:10:17;;;;;;;;;3.00;3.00;;;;;;;;5022796;28;11407;-81
2023/03/16 02:12:46;;;;;;;;;2.75;2.75;;;;;;;;5019830;28;11393;-81
2023/03/16 02:15:16;;;;;;;;;2.00;2.00;;;;;;;;5023997;28;11484;-82
2023/03/16 02:17:47;;;;;;;;;4.25;2.75;;;;;;;;5007360;28;11526;-80
2023/03/16 02:20:24;;;;;;;;;2.00;2.00;;;;;;;;5017606;28;11798;-81
2023/03/16 02:22:54;;;;;;;;;2.00;2.00;;;;;;;;5016174;28;11426;-82
2023/03/16 02:25:24;;;;;;;;;2.50;2.50;;;;;;;;5005188;28;11443;-82
2023/03/16 02:27:57;;;;;;;;;2.00;2.00;;;;;;;;5016302;28;11519;-80
2023/03/16 02:30:27;;;;;;;;;2.00;2.00;;;;;;;;5013446;28;11429;-82
2023/03/16 02:32:55;;;;;;;;;4.00;4.00;;;;;;;;4997920;28;11414;-81
2023/03/16 02:35:23;;;;;;;;;3.00;3.00;;;;;;;;5017343;28;11395;-81
2023/03/16 02:37:51;;;;;;;;;2.25;2.25;;;;;;;;5011175;28;11416;-79
2023/03/16 02:40:22;;;;;;;;;2.00;2.00;;;;;;;;5002014;28;11597;-81
2023/03/16 02:42:54;;;;;;;;;2.00;2.00;;;;;;;;4999645;28;11440;-80
2023/03/16 02:45:22;;;;;;;;;3.00;3.00;;;;;;;;5014770;28;11421;-80
2023/03/16 02:47:54;;;;;;;;;2.00;2.00;;;;;;;;5002319;28;11432;-80
2023/03/16 02:50:22;;;;;;;;;2.00;2.00;;;;;;;;5017653;28;11437;-80
2023/03/16 02:52:49;;;;;;;;;4.75;2.00;;;;;;;;4999813;28;11421;-80
2023/03/16 02:55:17;;;;;;;;;4.25;4.25;;;;;;;;5015930;28;13329;-80
2023/03/16 02:57:44;;;;;;;;;2.00;2.00;;;;;;;;5000962;28;12086;-81
2023/03/16 03:00:17;;;;;;;;;3.00;3.00;;;;;;;;5015701;28;11385;-80
2023/03/16 03:02:46;;;;;;;;;3.00;3.00;;;;;;;;5014167;28;12203;-80
2023/03/16 03:05:15;;;;;;;;;3.00;3.00;;;;;;;;5016439;28;11386;-80
2023/03/16 03:07:43;;;;;;;;;3.00;1.25;;;;;;;;5010637;28;12244;-79
2023/03/16 03:10:11;;;;;;;;;1.25;1.25;;;;;;;;5016425;28;11406;-80
2023/03/16 03:12:38;;;;;;;;;4.00;2.50;;;;;;;;5016259;28;11413;-80
2023/03/16 03:15:08;;;;;;;;;3.50;2.00;;;;;;;;5014471;28;11435;-76
2023/03/16 03:17:36;;;;;;;;;2.75;1.50;;;;;;;;5014637;28;11420;-80
2023/03/16 03:20:12;;;;;;;;;2.75;2.75;;;;;;;;5014565;28;11420;-79
2023/03/16 03:22:44;;;;;;;;;3.00;3.00;;;;;;;;5014474;28;11451;-80
2023/03/16 03:25:12;;;;;;;;;4.00;4.00;;;;;;;;5014618;28;11395;-81
2023/03/16 03:27:41;;;;;;;;;2.50;2.50;;;;;;;;4999685;28;11431;-81
2023/03/16 03:30:11;;;;;;;;;2.75;2.00;;;;;;;;5011690;28;11402;-80
2023/03/16 03:32:39;;;;;;;;;3.00;3.00;;;;;;;;4982776;28;11481;-80
2023/03/16 03:35:07;;;;;;;;;2.00;2.00;;;;;;;;4987219;28;11405;-80
2023/03/16 03:37:35;;;;;;;;;2.00;2.00;;;;;;;;5000364;28;11422;-81
2023/03/16 03:40:11;;;;;;;;;2.00;2.00;;;;;;;;4999536;28;11376;-81
2023/03/16 03:42:38;;;;;;;;;2.75;2.75;;;;;;;;5005124;28;11662;-80
2023/03/16 03:45:07;;;;;;;;;2.25;2.00;;;;;;;;5011773;28;11538;-80
2023/03/16 03:47:35;;;;;;;;;3.00;3.00;;;;;;;;5000757;28;11459;-79
2023/03/16 03:50:03;;;;;;;;;3.75;2.75;;;;;;;;5000339;28;11528;-80
2023/03/16 03:52:30;;;;;;;;;3.00;3.00;;;;;;;;5004536;28;11426;-79
2023/03/16 03:54:58;;;;;;;;;4.75;3.25;;;;;;;;5014896;28;11402;-79
2023/03/16 03:57:27;;;;;;;;;5.50;3.00;;;;;;;;5012667;28;11446;-80
2023/03/16 03:59:54;;;;;;;;;3.00;3.00;;;;;;;;5016031;28;11545;-80
2023/03/16 04:02:23;;;;;;;;;1.25;1.25;;;;;;;;5024788;28;11463;-81
2023/03/16 04:04:52;;;;;;;;;3.00;3.00;;;;;;;;5008806;28;11432;-80
2023/03/16 04:07:20;;;;;;;;;2.00;2.00;;;;;;;;5020365;28;11475;-80
2023/03/16 04:09:47;;;;;;;;;1.50;1.50;;;;;;;;4995751;28;11401;-79
2023/03/16 04:12:15;;;;;;;;;3.00;2.75;;;;;;;;5012532;28;11406;-79
2023/03/16 04:14:44;;;;;;;;;2.00;2.00;;;;;;;;4969272;28;11416;-79
2023/03/16 04:17:12;;;;;;;;;3.25;3.25;;;;;;;;5012355;28;11409;-79
2023/03/16 04:19:40;;;;;;;;;4.00;2.25;;;;;;;;4996973;28;11455;-79
2023/03/16 04:22:08;;;;;;;;;3.00;3.00;;;;;;;;5015864;28;11581;-79
2023/03/16 04:24:35;;;;;;;;;3.75;3.25;;;;;;;;5013948;28;11457;-77
2023/03/16 04:27:03;;;;;;;;;1.75;1.75;;;;;;;;4997961;28;11458;-78
2023/03/16 04:29:32;;;;;;;;;2.25;2.25;;;;;;;;5012943;28;11533;-80
2023/03/16 04:32:01;;;;;;;;;3.00;3.00;;;;;;;;5009166;28;11458;-80
2023/03/16 04:34:30;;;;;;;;;2.25;2.25;;;;;;;;4997510;28;11509;-81
2023/03/16 04:36:58;;;;;;;;;2.25;2.25;;;;;;;;4982689;28;12223;-80
2023/03/16 04:39:26;;;;;;;;;3.00;3.00;;;;;;;;4988041;28;11474;-80
2023/03/16 04:41:54;;;;;;;;;3.00;3.00;;;;;;;;5007918;28;11446;-82
2023/03/16 04:44:22;;;;;;;;;6.50;2.00;;;;;;;;5012488;28;11479;-82
2023/03/16 04:46:49;;;;;;;;;2.00;2.00;;;;;;;;4978488;28;11488;-82
2023/03/16 04:49:20;;;;;;;;;2.00;2.00;;;;;;;;4998269;28;11621;-82
2023/03/16 04:51:48;;;;;;;;;8.00;3.00;;;;;;;;5015514;28;11469;-83
2023/03/16 04:54:16;;;;;;;;;3.00;2.25;;;;;;;;4997812;28;11619;-80
2023/03/16 04:56:44;;;;;;;;;2.50;2.50;;;;;;;;5014361;28;12327;-81
2023/03/16 04:59:12;;;;;;;;;4.00;2.25;;;;;;;;5011158;28;11552;-81
2023/03/16 05:01:40;;;;;;;;;2.00;2.00;;;;;;;;5000017;28;11590;-81
2023/03/16 05:04:07;;;;;;;;;4.00;4.00;;;;;;;;5011000;28;11665;-80
2023/03/16 05:06:36;;;;;;;;;6.00;2.00;;;;;;;;5009839;28;11523;-81
2023/03/16 05:09:06;;;;;;;;;7.00;2.75;;;;;;;;4997030;28;11504;-83
2023/03/16 05:11:36;;;;;;;;;3.00;3.00;;;;;;;;4998234;28;11573;-81
2023/03/16 05:14:04;;;;;;;;;5.50;2.75;;;;;;;;5000278;28;11508;-80
2023/03/16 05:16:32;;;;;;;;;2.25;2.25;;;;;;;;5014736;28;11608;-81
2023/03/16 05:19:03;;;;;;;;;2.00;2.00;;;;;;;;5012611;28;11488;-81
2023/03/16 05:21:30;;;;;;;;;3.00;3.00;;;;;;;;4998413;28;11504;-80
2023/03/16 05:23:59;;;;;;;;;3.00;3.00;;;;;;;;5019219;28;11474;-80
2023/03/16 05:26:27;;;;;;;;;5.00;3.00;;;;;;;;5014483;28;11471;-79
2023/03/16 05:28:54;;;;;;;;;3.25;2.00;;;;;;;;5018768;28;11456;-79
2023/03/16 05:31:25;;;;;;;;;4.50;4.50;;;;;;;;5016761;28;11475;-81
2023/03/16 05:33:56;;;;;;;;;2.00;1.75;;;;;;;;5013150;28;11475;-79
2023/03/16 05:36:35;;;;;;;;;0.50;0.50;;;;;;;;5003394;28;11526;-78
2023/03/16 05:39:07;;;;;;;;;2.75;2.75;;;;;;;;5018052;28;12081;-78
2023/03/16 05:41:37;;;;;;;;;1.00;1.00;;;;;;;;4986723;28;11569;-80
2023/03/16 05:44:05;;;;;;;;;1.25;1.25;;;;;;;;5016701;28;11489;-80
2023/03/16 05:46:33;;;;;;;;;2.00;2.00;;;;;;;;4992444;28;11451;-80
2023/03/16 05:49:03;;;;;;;;;1.25;1.00;;;;;;;;4999898;28;11447;-79
2023/03/16 05:51:32;;;;;;;;;1.00;1.00;;;;;;;;5017019;28;11451;-80
2023/03/16 05:54:01;;;;;;;;;3.25;1.75;;;;;;;;5024417;28;11448;-81
2023/03/16 05:56:30;;;;;;;;;4.00;2.00;;;;;;;;5024899;28;12617;-81
2023/03/16 05:59:01;;;;;;;;;2.00;0.00;;;;;;;;5005780;28;11475;-80
2023/03/16 06:01:29;;;;;;;;;2.50;2.50;;;;;;;;5006686;28;11412;-79
2023/03/16 06:04:04;;;;;;;;;3.50;3.00;;;;;;;;5020087;28;11485;-79
2023/03/16 06:06:32;;;;;;;;;1.00;1.00;;;;;;;;5016172;28;11623;-82
2023/03/16 06:09:00;;;;;;;;;2.00;2.00;;;;;;;;5001227;28;11414;-81
2023/03/16 06:11:31;;;;;;;;;1.00;1.00;;;;;;;;5022878;28;11566;-79
2023/03/16 06:14:00;;;;;;;;;0.00;0.00;;;;;;;;5020372;28;11387;-80
2023/03/16 06:16:29;;;;;;;;;2.00;2.00;;;;;;;;4985567;28;11453;-81
2023/03/16 06:18:56;;;;;;;;;0.75;0.75;;;;;;;;5021011;28;11478;-80
2023/03/16 06:21:24;;;;;;;;;0.50;0.50;;;;;;;;4985750;28;11464;-80
2023/03/16 06:23:53;;;;;;;;;2.00;2.00;;;;;;;;5002987;28;11421;-80
2023/03/16 06:26:22;;;;;;;;;2.00;2.00;;;;;;;;5014805;28;11581;-81
2023/03/16 06:28:51;;;;;;;;;4.00;1.00;;;;;;;;5017996;28;11486;-81
2023/03/16 06:31:19;;;;;;;;;2.00;1.00;;;;;;;;5016025;28;11494;-80
2023/03/16 06:33:46;;;;;;;;;2.00;2.00;;;;;;;;5017480;28;11602;-80
2023/03/16 06:36:20;;;;;;;;;1.00;1.00;;;;;;;;5002628;28;11513;-79
2023/03/16 06:38:47;;;;;;;;;2.00;2.00;;;;;;;;5014304;28;11444;-80
2023/03/16 06:41:15;;;;;;;;;1.00;1.00;;;;;;;;5023216;28;11982;-79
2023/03/16 06:43:43;;;;;;;;;1.50;1.50;;;;;;;;4999647;28;11495;-80
2023/03/16 06:46:12;;;;;;;;;1.75;1.75;;;;;;;;5003686;28;11475;-81
2023/03/16 06:48:47;;;;;;;;;1.00;1.00;;;;;;;;5016373;28;11471;-83
2023/03/16 06:51:15;;;;;;;;;0.75;0.75;;;;;;;;5012327;28;11529;-82
2023/03/16 06:53:43;;;;;;;;;1.25;1.25;;;;;;;;5012991;28;11444;-81
2023/03/16 06:56:12;;;;;;;;;0.75;0.75;;;;;;;;5001031;28;11425;-81
2023/03/16 06:58:40;;;;;;;;;1.00;1.00;;;;;;;;5018620;28;11471;-81
2023/03/16 07:01:08;;;;;;;;;1.00;1.00;;;;;;;;4998531;28;12153;-85
2023/03/16 07:03:40;;;;;;;;;1.75;1.75;;;;;;;;5021268;28;11499;-83
2023/03/16 07:06:09;;;;;;;;;2.00;2.00;;;;;;;;5023185;28;11418;-79
2023/03/16 07:08:36;;;;;;;;;2.00;2.00;;;;;;;;5000011;28;11414;-79
2023/03/16 07:11:08;;;;;;;;;1.75;1.75;;;;;;;;5014782;28;11460;-81
2023/03/16 07:13:36;;;;;;;;;3.00;3.00;;;;;;;;5014097;28;11598;-79
2023/03/16 07:16:14;;;;;;;;;2.00;2.00;;;;;;;;5028261;28;11537;-80
2023/03/16 07:18:44;;;;;;;;;3.50;3.50;;;;;;;;5001376;28;11455;-79
2023/03/16 07:21:12;;;;;;;;;2.50;2.50;;;;;;;;5016742;28;11481;-80
2023/03/16 07:23:40;;;;;;;;;2.25;2.00;;;;;;;;5000374;28;12221;-79
2023/03/16 07:26:08;;;;;;;;;1.00;1.00;;;;;;;;4999826;28;11681;-80
2023/03/16 07:28:39;;;;;;;;;2.00;2.00;;;;;;;;5019966;28;11411;-79
2023/03/16 07:31:06;;;;;;;;;1.00;1.00;;;;;;;;5021025;28;11417;-78
2023/03/16 07:33:34;;;;;;;;;0.75;0.75;;;;;;;;5014756;28;12167;-81
2023/03/16 07:36:19;;;;;;;;;1.00;1.00;;;;;;;;5036065;28;11376;-80
2023/03/16 07:38:47;;;;;;;;;0.00;0.00;;;;;;;;5032746;28;11407;-77
2023/03/16 07:41:14;;;;;;;;;0.50;0.50;;;;;;;;5022867;28;11555;-79
2023/03/16 07:43:43;;;;;;;;;2.25;1.00;;;;;;;;5001683;28;11404;-79
2023/03/16 07:46:12;;;;;;;;;1.00;1.00;;;;;;;;5000753;28;11530;-85
2023/03/16 07:48:41;;;;;;;;;1.00;1.00;;;;;;;;5003296;28;11450;-79
2023/03/16 07:51:11;;;;;;;;;4.00;1.00;;;;;;;;5027553;28;11497;-85
2023/03/16 07:53:40;;;;;;;;;1.25;1.25;;;;;;;;5026155;28;11498;-87
2023/03/16 07:56:10;;;;;;;;;1.00;1.00;;;;;;;;5019090;28;11397;-79
2023/03/16 07:58:38;;;;;;;;;3.25;2.00;;;;;;;;5019839;28;11409;-84
2023/03/16 08:01:06;;;;;;;;;1.50;1.50;;;;;;;;5015562;28;11529;-82
2023/03/16 08:03:34;;;;;;;;;0.50;0.50;;;;;;;;5014512;28;11408;-78
2023/03/16 08:06:04;;;;;;;;;1.00;1.00;;;;;;;;4997725;28;11695;-77
2023/03/16 08:08:35;;;;;;;;;1.00;1.00;;;;;;;;5013164;28;11402;-81
2023/03/16 08:11:03;;;;;;;;;6.50;2.25;;;;;;;;5011061;28;12399;-80
2023/03/16 08:13:34;;;;;;;;;1.00;1.00;;;;;;;;4996926;28;11601;-80
2023/03/16 08:16:04;;;;;;;;;1.00;1.00;;;;;;;;4996507;28;11501;-82
2023/03/16 08:18:35;;;;;;;;;1.00;1.00;;;;;;;;4998389;28;11989;-84
2023/03/16 08:21:03;;;;;;;;;2.00;2.00;;;;;;;;5016333;28;11146;-82
2023/03/16 08:23:32;;;;;;;;;6.25;2.25;;;;;;;;5008830;28;11133;-80
2023/03/16 08:26:02;;;;;;;;;1.75;1.75;;;;;;;;5014563;28;11419;-80
2023/03/16 08:28:32;;;;;;;;;2.00;2.00;;;;;;;;5011000;28;11877;-80
2023/03/16 08:31:03;;;;;;;;;1.25;1.00;;;;;;;;5013572;28;11413;-84
2023/03/16 08:33:33;;;;;;;;;2.00;2.00;;;;;;;;5013423;28;11138;-81
2023/03/16 08:36:01;;;;;;;;;3.00;2.00;;;;;;;;4999140;28;11127;-81
2023/03/16 08:38:29;;;;;;;;;2.00;2.00;;;;;;;;4994552;28;10988;-79
2023/03/16 08:40:57;;;;;;;;;2.00;2.00;;;;;;;;5012457;28;11125;-78
2023/03/16 08:43:26;;;;;;;;;2.00;2.00;;;;;;;;5013653;28;11122;-82
2023/03/16 08:45:54;;;;;;;;;2.00;2.00;;;;;;;;4998179;28;11033;-80
2023/03/16 08:48:22;;;;;;;;;2.75;2.25;;;;;;;;5010682;28;11082;-83
2023/03/16 08:50:52;;;;;;;;;2.00;2.00;;;;;;;;5009065;28;11159;-77
2023/03/16 08:53:20;;;;;;;;;3.00;1.50;;;;;;;;4994570;28;10913;-78
2023/03/16 08:55:48;;;;;;;;;2.00;2.00;;;;;;;;5013628;28;10831;-82
2023/03/16 08:58:16;;;;;;;;;3.75;3.50;;;;;;;;5000515;28;11207;-82
2023/03/16 09:00:51;;;;;;;;;3.00;2.00;;;;;;;;4997874;28;10897;-82
2023/03/16 09:03:19;;;;;;;;;1.00;1.00;;;;;;;;5041911;28;10868;-82
2023/03/16 09:05:46;;;;;;;;;3.00;1.50;;;;;;;;5028566;28;10533;-84
2023/03/16 09:08:15;;;;;;;;;1.75;1.75;;;;;;;;5019079;28;10626;-82
2023/03/16 09:10:43;;;;;;;;;2.00;2.00;;;;;;;;5006513;28;10772;-76
2023/03/16 09:13:11;;;;;;;;;2.00;2.00;;;;;;;;5032010;28;10917;-81
2023/03/16 09:15:41;;;;;;;;;2.00;1.00;;;;;;;;5019547;28;10651;-83
2023/03/16 09:18:10;;;;;;;;;2.25;2.25;;;;;;;;5015983;28;10396;-79
2023/03/16 09:20:38;;;;;;;;;1.00;1.00;;;;;;;;4996923;28;10515;-81
2023/03/16 09:23:06;;;;;;;;;0.25;0.25;;;;;;;;5014153;28;10516;-81
2023/03/16 09:25:33;;;;;;;;;2.00;2.00;;;;;;;;5012601;28;10426;-81
2023/03/16 09:28:02;;;;;;;;;2.00;1.25;;;;;;;;5016186;28;10383;-80
2023/03/16 09:30:30;;;;;;;;;4.25;2.00;;;;;;;;5001944;28;10352;-78
2023/03/16 09:32:59;;;;;;;;;2.50;2.00;;;;;;;;5015998;28;10126;-80
2023/03/16 09:35:28;;;;;;;;;2.75;2.75;;;;;;;;5014347;28;10047;-81
2023/03/16 09:37:57;;;;;;;;;2.25;2.25;;;;;;;;5002923;28;9851;-80
2023/03/16 09:40:27;;;;;;;;;2.00;2.00;;;;;;;;5014242;28;9924;-80
2023/03/16 09:43:04;;;;;;;;;2.25;1.00;;;;;;;;4988293;28;9885;-82
2023/03/16 09:45:38;;;;;;;;;5.00;3.00;;;;;;;;5004362;28;10042;-79
2023/03/16 09:48:08;;;;;;;;;3.00;3.00;;;;;;;;5003220;28;9957;-79
2023/03/16 09:50:39;;;;;;;;;2.00;2.00;;;;;;;;5005898;28;10388;-81
2023/03/16 09:53:12;;;;;;;;;2.25;2.00;;;;;;;;5014121;28;9685;-78
2023/03/16 09:55:40;;;;;;;;;2.00;2.00;;;;;;;;5014887;28;9861;-84
2023/03/16 09:58:13;;;;;;;;;1.00;1.00;;;;;;;;5021462;28;9755;-79
2023/03/16 10:00:45;;;;;;;;;2.00;2.00;;;;;;;;5014465;28;9688;-81
2023/03/16 10:03:24;;;;;;;;;2.00;2.00;;;;;;;;5015314;28;9623;-79
2023/03/16 10:06:00;;;;;;;;;2.75;2.00;;;;;;;;5019563;28;9702;-77
2023/03/16 10:08:34;;;;;;;;;3.75;2.00;;;;;;;;5022389;28;9633;-74
2023/03/16 10:11:22;;;;;;;;;0.00;0.00;;;;;;;;5004083;28;9688;-76
2023/03/16 10:13:55;;;;;;;;;3.25;2.00;;;;;;;;5021894;28;9389;-86
2023/03/16 10:16:26;;;;;;;;;2.00;2.00;;;;;;;;5022353;28;9634;-76
2023/03/16 10:18:59;;;;;;;;;4.25;2.75;;;;;;;;5017109;28;9466;-82
2023/03/16 10:21:31;;;;;;;;;3.00;3.00;;;;;;;;5015739;28;9700;-83
2023/03/16 10:24:03;;;;;;;;;3.00;3.00;;;;;;;;5004891;28;9502;-86
2023/03/16 10:26:38;;;;;;;;;3.00;3.00;;;;;;;;5016075;28;9896;-84
2023/03/16 10:29:09;;;;;;;;;2.00;2.00;;;;;;;;4987221;28;9546;-75
2023/03/16 10:31:37;;;;;;;;;3.25;3.25;;;;;;;;5017231;28;9394;-79
2023/03/16 10:34:07;;;;;;;;;4.00;2.00;;;;;;;;5007164;28;9391;-76
2023/03/16 10:36:38;;;;;;;;;3.00;3.00;;;;;;;;5002632;28;9428;-82
2023/03/16 10:39:07;;;;;;;;;3.33;2.00;;;;;;;;5017029;28;10078;-77
2023/03/16 10:41:36;;;;;;;;;3.00;3.00;;;;;;;;5009161;28;9087;-80
2023/03/16 10:44:10;;;;;;;;;2.00;2.00;;;;;;;;5017342;28;9230;-74
2023/03/16 10:46:39;;;;;;;;;4.00;3.00;;;;;;;;5015845;28;9165;-77
2023/03/16 10:49:20;;;;;;;;;2.00;2.00;;;;;;;;5003002;28;9163;-76
2023/03/16 10:51:50;;;;;;;;;1.00;1.00;;;;;;;;5016741;28;9259;-78
2023/03/16 10:54:23;;;;;;;;;3.00;3.00;;;;;;;;4994471;28;9902;-75
2023/03/16 10:56:51;;;;;;;;;4.00;2.67;;;;;;;;4998659;28;9353;-75
2023/03/16 10:59:32;;;;;;;;;3.67;2.33;;;;;;;;4978658;28;9010;-76
2023/03/16 11:02:01;;;;;;;;;4.00;4.00;;;;;;;;5000161;28;9575;-77
2023/03/16 11:04:33;;;;;;;;;5.50;2.50;;;;;;;;5001137;28;8963;-77
2023/03/16 11:07:02;;;;;;;;;2.00;2.00;;;;;;;;5000313;28;8998;-79
2023/03/16 11:09:33;;;;;;;;;2.00;2.00;;;;;;;;4966571;28;8982;-75
2023/03/16 11:12:12;;;;;;;;;1.50;1.50;;;;;;;;4996626;28;9817;-80
2023/03/16 11:14:44;;;;;;;;;1.25;1.25;;;;;;;;4995765;28;8855;-80
2023/03/16 11:17:14;;;;;;;;;3.25;2.25;;;;;;;;4996660;28;8846;-79
2023/03/16 11:19:50;;;;;;;;;2.75;2.75;;;;;;;;5002397;28;8871;-77
2023/03/16 11:22:22;;;;;;;;;2.50;2.50;;;;;;;;4997754;28;10162;-78
2023/03/16 11:24:54;;;;;;;;;3.00;3.00;;;;;;;;4994374;28;9474;-78
2023/03/16 11:27:25;;;;;;;;;1.00;1.00;;;;;;;;4967749;28;9652;-77
2023/03/16 11:30:06;;;;;;;;;4.00;4.00;;;;;;;;4992240;28;8905;-78
2023/03/16 11:32:37;;;;;;;;;2.25;2.25;;;;;;;;4996594;28;8866;-78
2023/03/16 11:35:13;;;;;;;;;3.00;1.50;;;;;;;;4997326;28;8909;-77
2023/03/16 11:37:57;;;;;;;;;2.25;2.25;;;;;;;;4992805;28;8866;-77
2023/03/16 11:40:39;;;;;;;;;2.25;2.25;;;;;;;;4975811;28;8880;-75
2023/03/16 11:43:18;;;;;;;;;3.75;2.00;;;;;;;;4991143;28;8893;-75
2023/03/16 11:45:51;;;;;;;;;3.75;3.75;;;;;;;;5000380;28;8875;-76
2023/03/16 11:48:29;;;;;;;;;2.25;2.25;;;;;;;;4968267;28;8851;-76
2023/03/16 11:51:03;;;;;;;;;4.00;2.50;;;;;;;;4997424;28;8993;-76
2023/03/16 11:53:42;;;;;;;;;3.00;3.00;;;;;;;;5010008;28;9388;-76
2023/03/16 11:56:19;;;;;;;;;2.00;2.00;;;;;;;;5002684;28;8900;-76
2023/03/16 11:59:25;;;;;;;;;3.25;3.25;;;;;;;;4985331;28;8843;-76
2023/03/16 12:02:06;;;;;;;;;4.25;2.00;;;;;;;;5020716;28;8836;-74
2023/03/16 12:04:45;;;;;;;;;3.00;3.00;;;;;;;;5013559;28;8900;-75
2023/03/16 12:07:26;;;;;;;;;1.75;1.75;;;;;;;;5003557;28;8901;-76
2023/03/16 12:10:12;;;;;;;;;5.00;3.00;;;;;;;;5010675;28;8850;-75
2023/03/16 12:12:57;;;;;;;;;5.25;2.00;;;;;;;;5016519;28;8969;-75
2023/03/16 12:15:32;;;;;;;;;2.25;2.00;;;;;;;;4969657;28;8859;-74
2023/03/16 12:18:05;;;;;;;;;3.00;3.00;;;;;;;;5018841;28;8858;-76
2023/03/16 12:20:38;;;;;;;;;3.00;3.00;;;;;;;;5000176;28;9663;-77
2023/03/16 12:23:09;;;;;;;;;3.50;3.50;;;;;;;;5008532;28;8876;-75
2023/03/16 12:25:43;;;;;;;;;3.00;1.75;;;;;;;;5013516;28;8835;-76
2023/03/16 12:28:18;;;;;;;;;5.75;3.50;;;;;;;;5021130;28;8861;-76
2023/03/16 12:30:49;;;;;;;;;3.75;3.00;;;;;;;;5016237;28;8869;-73
2023/03/16 12:33:22;;;;;;;;;3.00;1.50;;;;;;;;5004968;28;8969;-75
2023/03/16 12:35:56;;;;;;;;;3.25;2.00;;;;;;;;5016402;28;8974;-76
2023/03/16 12:38:32;;;;;;;;;2.50;2.50;;;;;;;;5019074;28;8946;-74
2023/03/16 12:41:21;;;;;;;;;4.50;3.50;;;;;;;;5021328;28;8841;-75
2023/03/16 12:43:58;;;;;;;;;2.00;2.00;;;;;;;;5015166;28;8890;-74
2023/03/16 12:46:32;;;;;;;;;3.00;3.00;;;;;;;;5018962;28;8850;-75
2023/03/16 12:49:02;;;;;;;;;3.25;2.25;;;;;;;;5011069;28;8850;-75
2023/03/16 12:51:37;;;;;;;;;2.75;2.75;;;;;;;;5002442;28;8854;-74
2023/03/16 12:54:06;;;;;;;;;4.00;2.00;;;;;;;;5006493;28;8882;-76
2023/03/16 12:56:36;;;;;;;;;2.00;2.00;;;;;;;;5001209;28;8859;-75
2023/03/16 12:59:06;;;;;;;;;2.50;2.50;;;;;;;;4983882;28;8866;-74
2023/03/16 13:01:39;;;;;;;;;3.00;3.00;;;;;;;;5001037;28;8873;-75
2023/03/16 13:04:11;;;;;;;;;2.75;2.75;;;;;;;;4987443;28;8960;-75
2023/03/16 13:06:44;;;;;;;;;2.00;2.00;;;;;;;;4999106;28;9761;-74
2023/03/16 13:09:12;;;;;;;;;2.25;2.25;;;;;;;;5002695;28;8873;-75
2023/03/16 13:11:49;;;;;;;;;2.00;2.00;;;;;;;;5000553;28;8867;-73
2023/03/16 13:14:31;;;;;;;;;2.25;2.00;;;;;;;;5002022;28;9064;-75
2023/03/16 13:17:05;;;;;;;;;2.00;2.00;;;;;;;;5001840;28;9680;-74
2023/03/16 13:19:36;;;;;;;;;3.00;3.00;;;;;;;;5001709;28;8859;-75
2023/03/16 13:22:19;;;;;;;;;1.25;1.25;;;;;;;;5001514;28;8859;-75
2023/03/16 13:24:51;;;;;;;;;2.00;2.00;;;;;;;;4992609;28;8835;-75
2023/03/16 13:27:28;;;;;;;;;2.25;2.25;;;;;;;;4999936;28;8866;-74
2023/03/16 13:29:57;;;;;;;;;2.75;2.75;;;;;;;;4999328;28;8865;-74
2023/03/16 13:32:27;;;;;;;;;1.00;1.00;;;;;;;;5000031;28;8871;-73
2023/03/16 13:34:58;;;;;;;;;1.50;1.50;;;;;;;;4985272;28;9637;-73
2023/03/16 13:37:29;;;;;;;;;1.00;1.00;;;;;;;;5000529;28;8847;-74
2023/03/16 13:39:58;;;;;;;;;1.00;1.00;;;;;;;;4999369;28;8899;-74
2023/03/16 13:42:30;;;;;;;;;3.50;0.50;;;;;;;;4983819;28;8933;-75
2023/03/16 13:44:58;;;;;;;;;1.00;1.00;;;;;;;;5000610;28;8863;-75
2023/03/16 13:47:27;;;;;;;;;1.25;1.25;;;;;;;;4982291;28;8993;-74
2023/03/16 13:49:56;;;;;;;;;0.00;0.00;;;;;;;;4984878;28;8867;-74
2023/03/16 13:52:27;;;;;;;;;1.00;1.00;;;;;;;;5001339;28;8941;-74
2023/03/16 13:54:55;;;;;;;;;2.00;2.00;;;;;;;;5018387;28;8865;-75
2023/03/16 13:57:27;;;;;;;;;2.25;2.25;;;;;;;;5015012;28;8848;-75
2023/03/16 14:00:04;;;;;;;;;2.25;2.25;;;;;;;;5008923;28;8883;-75
2023/03/16 14:02:36;;;;;;;;;1.75;1.75;;;;;;;;5010531;28;8920;-75
2023/03/16 14:05:11;;;;;;;;;2.00;2.00;;;;;;;;5014769;28;8891;-76
2023/03/16 14:07:39;;;;;;;;;3.00;3.00;;;;;;;;5017988;28;8858;-74
2023/03/16 14:10:09;;;;;;;;;3.75;3.75;;;;;;;;5019948;28;8846;-75
2023/03/16 14:12:39;;;;;;;;;4.00;3.00;;;;;;;;5002295;28;8881;-76
2023/03/16 14:15:09;;;;;;;;;2.00;2.00;;;;;;;;5009682;28;8870;-75
2023/03/16 14:17:36;;;;;;;;;3.75;2.00;;;;;;;;5013335;28;8852;-75
2023/03/16 14:20:04;;;;;;;;;2.00;2.00;;;;;;;;5017459;28;8858;-74
2023/03/16 14:22:36;;;;;;;;;2.00;2.00;;;;;;;;5000158;28;8827;-74
2023/03/16 14:25:05;;;;;;;;;3.25;1.50;;;;;;;;5002394;28;9624;-75
2023/03/16 14:27:45;;;;;;;;;2.00;2.00;;;;;;;;5003053;28;8873;-75
2023/03/16 14:30:19;;;;;;;;;1.75;1.75;;;;;;;;5012110;28;8841;-74
2023/03/16 14:32:57;;;;;;;;;1.00;1.00;;;;;;;;5008650;28;8838;-74
2023/03/16 14:35:27;;;;;;;;;1.50;1.00;;;;;;;;4999521;28;8975;-74
2023/03/16 14:37:56;;;;;;;;;3.00;3.00;;;;;;;;5010650;28;8851;-75
2023/03/16 14:40:32;;;;;;;;;3.00;3.00;;;;;;;;5013292;28;8850;-75
2023/03/16 14:43:03;;;;;;;;;4.75;3.00;;;;;;;;5017080;28;8846;-75
2023/03/16 14:45:33;;;;;;;;;2.00;2.00;;;;;;;;5020132;28;8846;-75
2023/03/16 14:48:07;;;;;;;;;2.75;2.75;;;;;;;;5014825;28;8888;-76
2023/03/16 14:50:36;;;;;;;;;2.00;2.00;;;;;;;;5010966;28;8954;-75
2023/03/16 14:53:04;;;;;;;;;4.25;3.00;;;;;;;;5001970;28;8866;-76
2023/03/16 14:55:32;;;;;;;;;2.75;2.00;;;;;;;;4999041;28;8932;-75
2023/03/16 14:58:01;;;;;;;;;3.00;3.00;;;;;;;;5019290;28;8878;-75
2023/03/16 15:00:30;;;;;;;;;2.75;2.75;;;;;;;;5012788;28;9005;-74
2023/03/16 15:03:01;;;;;;;;;3.00;3.00;;;;;;;;5016060;28;8980;-75
2023/03/16 15:05:35;;;;;;;;;2.75;2.50;;;;;;;;5016428;28;8856;-75
2023/03/16 15:08:03;;;;;;;;;2.00;2.00;;;;;;;;5010690;28;8870;-74